Time;durP1;ratioP1;P1;durP2;ratioP2;P2;SDS_P1;SDS_P2;PMS_P1;PMS_P2;Temp;Humidity;BMP_temperature;BMP_pressure;BME280_temperature;BME280_humidity;BME280_pressure;Samples;Min_cycle;Max_cycle;Signal;HPM_P1;HPM_P2
2021/11/08 00:00:28;;;;;;;9.83;7.33;;;;;;;8.31;87.91;95650.51;1795026;80;20999;-67
2021/11/08 00:02:52;;;;;;;9.60;7.10;;;;;;;8.38;88.05;95636.42;1794369;80;21030;-67
2021/11/08 00:05:18;;;;;;;10.70;6.70;;;;;;;8.38;87.60;95630.72;1795011;80;21129;-67
2021/11/08 00:07:49;;;;;;;9.27;6.70;;;;;;;8.34;87.01;95636.91;1795124;80;21089;-68
2021/11/08 00:10:15;;;;;;;11.17;6.07;;;;;;;8.31;87.19;95629.03;1795170;80;21026;-68
2021/11/08 00:12:42;;;;;;;8.70;6.20;;;;;;;8.31;87.12;95634.73;1795420;80;21086;-67
2021/11/08 00:15:11;;;;;;;9.27;6.20;;;;;;;8.31;87.29;95641.31;1794998;80;21053;-67
2021/11/08 00:17:52;;;;;;;10.17;6.00;;;;;;;8.31;87.51;95634.73;1794912;80;21066;-67
2021/11/08 00:20:24;;;;;;;7.87;6.07;;;;;;;8.39;87.79;95646.05;1793957;80;21066;-67
2021/11/08 00:22:47;;;;;;;8.03;6.07;;;;;;;8.44;87.50;95651.75;1794498;80;21082;-67
2021/11/08 00:25:14;;;;;;;7.93;5.87;;;;;;;8.41;87.03;95663.58;1795287;80;21098;-67
2021/11/08 00:27:41;;;;;;;6.83;5.37;;;;;;;8.40;86.93;95665.80;1795214;80;21035;-67
2021/11/08 00:30:10;;;;;;;6.60;5.37;;;;;;;8.36;86.93;95661.41;1795290;80;21042;-67
2021/11/08 00:32:37;;;;;;;8.77;5.57;;;;;;;8.42;87.40;95667.97;1795416;80;21049;-68
2021/11/08 00:35:06;;;;;;;6.70;5.40;;;;;;;8.39;86.89;95658.81;1795087;80;21080;-67
2021/11/08 00:37:34;;;;;;;5.93;4.83;;;;;;;8.35;86.87;95659.67;1795382;80;21126;-67
2021/11/08 00:40:04;;;;;;;6.95;5.20;;;;;;;8.21;87.05;95665.06;1795331;80;21433;-67
2021/11/08 00:42:30;;;;;;;7.00;5.10;;;;;;;8.17;87.41;95671.22;1795435;80;21046;-67
2021/11/08 00:44:57;;;;;;;7.20;5.07;;;;;;;8.15;87.43;95670.36;1794960;80;20982;-67
2021/11/08 00:47:25;;;;;;;7.73;5.07;;;;;;;8.18;87.52;95670.33;1795020;80;21054;-67
2021/11/08 00:49:53;;;;;;;7.10;5.10;;;;;;;8.20;87.51;95658.05;1795220;80;21018;-67
2021/11/08 00:52:20;;;;;;;5.57;4.43;;;;;;;8.20;87.41;95652.79;1795116;80;20983;-67
2021/11/08 00:54:47;;;;;;;5.07;4.47;;;;;;;8.21;87.42;95656.28;1795079;80;20975;-68
2021/11/08 00:57:18;;;;;;;5.93;4.10;;;;;;;8.21;87.36;95661.54;1795190;80;21125;-67
2021/11/08 00:59:42;;;;;;;5.13;3.90;;;;;;;8.24;87.56;95662.85;1794794;80;21062;-67
2021/11/08 01:02:09;;;;;;;4.33;3.50;;;;;;;8.26;87.60;95657.56;1788663;80;21095;-67
2021/11/08 01:04:37;;;;;;;4.50;3.20;;;;;;;8.32;87.58;95661.47;1787133;80;21501;-67
2021/11/08 01:07:05;;;;;;;4.27;3.70;;;;;;;8.31;86.91;95667.59;1786895;80;21580;-67
2021/11/08 01:09:32;;;;;;;7.07;3.30;;;;;;;8.23;86.76;95666.34;1786965;80;21034;-67
2021/11/08 01:11:59;;;;;;;5.67;3.90;;;;;;;8.18;86.75;95658.50;1786770;80;21065;-67
2021/11/08 01:14:26;;;;;;;4.90;3.77;;;;;;;8.15;86.77;95653.72;1786546;80;21019;-68
2021/11/08 01:16:56;;;;;;;4.23;3.63;;;;;;;8.13;87.40;95651.09;1786718;80;21118;-68
2021/11/08 01:19:27;;;;;;;6.27;3.00;;;;;;;8.21;87.84;95664.17;1787046;80;21548;-67
2021/11/08 01:22:04;;;;;;;3.17;2.77;;;;;;;8.29;87.83;95659.74;1786847;80;21026;-68
2021/11/08 01:24:25;;;;;;;4.30;3.10;;;;;;;8.34;87.73;95672.82;1785623;80;21083;-67
2021/11/08 01:26:52;;;;;;;9.43;3.20;;;;;;;8.34;87.55;95673.72;1786793;80;21023;-67
2021/11/08 01:29:18;;;;;;;3.80;3.37;;;;;;;8.33;87.16;95679.84;1786937;80;21070;-68
2021/11/08 01:31:45;;;;;;;5.90;4.37;;;;;;;8.21;87.26;95676.00;1786726;80;21049;-68
2021/11/08 01:34:12;;;;;;;5.13;3.83;;;;;;;8.18;87.75;95677.34;1786878;80;20983;-68
2021/11/08 01:36:41;;;;;;;3.70;3.00;;;;;;;8.16;88.18;95679.11;1786690;80;21146;-68
2021/11/08 01:39:17;;;;;;;2.80;2.40;;;;;;;8.11;88.56;95679.13;1786624;80;21019;-68
2021/11/08 01:41:43;;;;;;;4.13;2.30;;;;;;;8.08;88.92;95672.59;1786155;80;21094;-68
2021/11/08 01:44:10;;;;;;;2.00;1.80;;;;;;;8.04;88.85;95673.52;1786998;80;20998;-67
2021/11/08 01:46:37;;;;;;;2.03;1.40;;;;;;;7.99;88.81;95666.98;1786957;80;21074;-68
2021/11/08 01:49:04;;;;;;;1.80;1.37;;;;;;;7.95;88.85;95673.58;1786794;80;21516;-68
2021/11/08 01:51:33;;;;;;;1.37;1.27;;;;;;;7.94;88.79;95679.73;1787147;80;21019;-68
2021/11/08 01:54:00;;;;;;;1.37;1.10;;;;;;;7.93;88.74;95674.02;1786814;80;21053;-68
2021/11/08 01:56:26;;;;;;;1.20;1.07;;;;;;;7.89;88.63;95671.87;1786869;80;21019;-68
2021/11/08 01:58:54;;;;;;;1.10;1.00;;;;;;;7.89;88.67;95680.20;1786871;80;21111;-68
2021/11/08 02:01:21;;;;;;;1.10;1.00;;;;;;;7.88;88.59;95679.75;1786731;80;21015;-68
2021/11/08 02:03:48;;;;;;;0.90;0.90;;;;;;;7.86;88.76;95681.09;1786521;80;21094;-67
2021/11/08 02:06:14;;;;;;;1.97;0.77;;;;;;;7.89;88.80;95687.64;1786727;80;21023;-68
2021/11/08 02:08:42;;;;;;;0.83;0.83;;;;;;;7.94;88.64;95691.11;1786737;80;20980;-68
2021/11/08 02:11:10;;;;;;;0.70;0.70;;;;;;;7.96;88.64;95697.23;1786761;80;21544;-68
2021/11/08 02:13:37;;;;;;;0.60;0.60;;;;;;;7.99;88.48;95714.28;1787323;80;21011;-68
2021/11/08 02:16:07;;;;;;;0.57;0.57;;;;;;;7.92;88.15;95727.02;1786733;80;21106;-68
2021/11/08 02:18:36;;;;;;;1.70;0.40;;;;;;;7.78;88.07;95728.84;1787223;80;21021;-68
2021/11/08 02:21:06;;;;;;;0.57;0.57;;;;;;;7.74;87.98;95730.63;1787276;80;21015;-68
2021/11/08 02:23:32;;;;;;;0.50;0.50;;;;;;;7.70;88.11;95733.27;1786695;80;21002;-68
2021/11/08 02:26:02;;;;;;;0.70;0.70;;;;;;;7.66;88.21;95735.47;1787250;80;21037;-68
2021/11/08 02:28:27;;;;;;;0.53;0.53;;;;;;;7.58;88.44;95733.78;1786861;80;21034;-68
2021/11/08 02:30:56;;;;;;;0.60;0.50;;;;;;;7.53;88.68;95724.16;1786682;80;21102;-68
2021/11/08 02:33:25;;;;;;;1.10;0.73;;;;;;;7.48;88.75;95731.18;1787704;80;20947;-68
2021/11/08 02:35:55;;;;;;;1.23;0.50;;;;;;;7.46;88.72;95738.19;1787259;80;21500;-68
2021/11/08 02:40:53;;;;;;;0.53;0.40;;;;;;;7.41;89.03;95729.45;1787342;80;21015;-68
2021/11/08 02:43:22;;;;;;;0.50;0.50;;;;;;;7.42;88.84;95729.91;1787307;80;20959;-68
2021/11/08 02:46:14;;;;;;;0.50;0.50;;;;;;;7.43;88.81;95744.32;1786958;80;21117;-68
2021/11/08 02:48:26;;;;;;;1.33;0.60;;;;;;;7.40;88.91;95756.16;1774523;80;21015;-67
2021/11/08 02:50:56;;;;;;;0.30;0.30;;;;;;;7.38;88.85;95759.22;1786855;80;21086;-68
2021/11/08 02:53:23;;;;;;;0.57;0.30;;;;;;;7.40;88.74;95761.85;1786473;80;21489;-67
2021/11/08 02:55:52;;;;;;;1.50;0.40;;;;;;;7.42;88.77;95758.78;1786881;80;21094;-67
2021/11/08 02:58:19;;;;;;;0.40;0.40;;;;;;;7.41;88.66;95760.55;1787297;80;21018;-67
2021/11/08 03:00:47;;;;;;;0.40;0.40;;;;;;;7.42;88.60;95754.84;1786586;80;21066;-67
2021/11/08 03:03:14;;;;;;;0.57;0.50;;;;;;;7.43;88.49;95756.13;1787065;80;21528;-67
2021/11/08 03:05:40;;;;;;;0.60;0.60;;;;;;;7.44;88.50;95747.84;1786729;80;21090;-67
2021/11/08 03:08:10;;;;;;;0.60;0.50;;;;;;;7.42;88.49;95737.78;1787068;80;21027;-67
2021/11/08 03:10:40;;;;;;;0.50;0.50;;;;;;;7.44;88.56;95750.47;1786823;80;21093;-67
2021/11/08 03:13:17;;;;;;;0.57;0.50;;;;;;;7.41;88.61;95751.77;1787116;80;21450;-67
2021/11/08 03:18:14;;;;;;;0.30;0.30;;;;;;;7.44;88.62;95745.22;1787078;80;21011;-67
2021/11/08 03:20:37;;;;;;;1.37;0.43;;;;;;;7.45;88.45;95750.89;1784999;80;21572;-67
2021/11/08 03:23:07;;;;;;;0.50;0.40;;;;;;;7.47;88.48;95763.13;1787272;80;21010;-67
2021/11/08 03:25:56;;;;;;;0.30;0.30;;;;;;;7.47;88.40;95760.95;1787217;80;21066;-67
2021/11/08 03:28:13;;;;;;;0.30;0.30;;;;;;;7.41;88.06;95763.58;1783593;80;21043;-67
2021/11/08 03:30:45;;;;;;;0.50;0.50;;;;;;;7.41;88.11;95764.89;1786831;80;21030;-67
2021/11/08 03:33:13;;;;;;;0.63;0.40;;;;;;;7.40;88.23;95757.47;1786772;80;21488;-67
2021/11/08 03:35:41;;;;;;;0.73;0.50;;;;;;;7.32;88.12;95773.24;1786572;80;21058;-67
2021/11/08 03:38:13;;;;;;;0.83;0.30;;;;;;;7.34;88.24;95775.43;1787130;80;21111;-67
2021/11/08 03:40:44;;;;;;;0.70;0.50;;;;;;;7.38;88.27;95778.91;1787174;80;21552;-68
2021/11/08 03:43:15;;;;;;;0.40;0.40;;;;;;;7.37;87.91;95771.47;1787270;80;21011;-67
2021/11/08 03:45:44;;;;;;;0.40;0.30;;;;;;;7.36;87.85;95782.87;1787017;80;21082;-67
2021/11/08 03:48:13;;;;;;;0.30;0.30;;;;;;;7.41;88.18;95781.55;1786902;80;21015;-67
2021/11/08 03:50:41;;;;;;;0.70;0.40;;;;;;;7.41;87.89;95782.86;1787111;80;21087;-67
2021/11/08 03:53:09;;;;;;;3.50;0.50;;;;;;;7.40;87.79;95790.73;1787126;80;20959;-67
2021/11/08 03:55:36;;;;;;;0.57;0.40;;;;;;;7.45;87.95;95798.15;1786558;80;21031;-67
2021/11/08 03:58:04;;;;;;;0.50;0.50;;;;;;;7.33;87.63;95785.51;1787060;80;21552;-67
2021/11/08 04:00:30;;;;;;;0.70;0.67;;;;;;;7.29;87.66;95770.64;1786715;80;21015;-67
2021/11/08 04:02:59;;;;;;;0.67;0.60;;;;;;;7.26;87.68;95779.84;1792995;80;21054;-67
2021/11/08 04:05:30;;;;;;;0.70;0.67;;;;;;;7.24;87.78;95784.66;1795524;80;20967;-67
2021/11/08 04:07:57;;;;;;;0.60;0.50;;;;;;;7.24;88.02;95784.66;1795431;80;21522;-67
2021/11/08 04:10:24;;;;;;;0.50;0.50;;;;;;;7.25;88.03;95792.50;1795243;80;20975;-67
2021/11/08 04:12:53;;;;;;;1.50;0.53;;;;;;;7.24;88.14;95793.84;1795403;80;21066;-67
2021/11/08 04:15:28;;;;;;;0.47;0.47;;;;;;;7.24;88.05;95793.39;1795268;80;21456;-67
2021/11/08 04:17:50;;;;;;;2.10;0.63;;;;;;;7.22;88.20;95776.77;1794088;80;21094;-67
2021/11/08 04:20:22;;;;;;;1.80;1.70;;;;;;;7.26;88.47;95785.09;1795161;80;21434;-67
2021/11/08 04:22:53;;;;;;;2.17;1.10;;;;;;;7.36;88.59;95784.63;1795575;80;20970;-67
2021/11/08 04:25:23;;;;;;;1.40;1.30;;;;;;;7.43;88.41;95777.58;1795536;80;21003;-67
2021/11/08 04:27:51;;;;;;;1.50;1.30;;;;;;;7.53;88.66;95780.61;1795375;80;21010;-67
2021/11/08 04:30:19;;;;;;;0.80;0.80;;;;;;;7.64;88.40;95788.02;1794998;80;21102;-67
2021/11/08 04:33:03;;;;;;;1.10;1.00;;;;;;;7.68;88.19;95798.06;1795709;80;20947;-67
2021/11/08 04:35:39;;;;;;;1.13;0.70;;;;;;;7.67;87.82;95801.13;1792066;80;21062;-67
2021/11/08 04:38:07;;;;;;;1.10;1.00;;;;;;;7.65;87.43;95777.07;1790798;80;20979;-67
2021/11/08 04:40:29;;;;;;;2.57;1.77;;;;;;;7.52;86.88;95767.92;1792472;80;21019;-67
2021/11/08 04:43:26;;;;;;;5.60;2.87;;;;;;;7.43;87.03;95769.70;1794264;80;20998;-67
2021/11/08 04:58:44;;;;;;;3.30;1.80;;;;;;;7.50;88.36;95782.80;1795122;80;21312;-67
2021/11/08 05:28:18;;;;;;;17.13;9.03;;;;;;;7.53;86.98;95826.55;1651439;86;21503;-67
2021/11/08 05:30:34;;;;;;;17.67;9.47;;;;;;;7.57;87.60;95826.99;1783932;80;21474;-67
2021/11/08 05:33:01;;;;;;;12.00;6.77;;;;;;;7.58;87.69;95812.97;1786562;80;21130;-68
2021/11/08 05:35:29;;;;;;;9.00;6.13;;;;;;;7.62;87.67;95803.34;1786990;80;21007;-67
2021/11/08 05:37:57;;;;;;;11.77;5.80;;;;;;;7.67;87.74;95802.89;1786987;80;20991;-67
2021/11/08 05:40:31;;;;;;;9.87;6.30;;;;;;;7.61;87.07;95813.40;1786768;80;21030;-67
2021/11/08 05:43:02;;;;;;;8.17;5.30;;;;;;;7.64;87.40;95801.16;1786761;80;21568;-67
2021/11/08 05:45:33;;;;;;;6.47;5.17;;;;;;;7.68;87.39;95781.86;1787255;80;20968;-66
2021/11/08 05:48:02;;;;;;;5.20;4.17;;;;;;;7.65;87.08;95766.12;1787286;80;21022;-67
2021/11/08 05:50:30;;;;;;;7.00;4.60;;;;;;;7.64;87.07;95766.14;1787302;80;21499;-67
2021/11/08 05:52:58;;;;;;;5.77;3.80;;;;;;;7.66;87.39;95772.23;1787225;80;20967;-68
2021/11/08 05:55:51;;;;;;;4.87;3.90;;;;;;;7.66;87.17;95773.14;1786845;80;21126;-67
2021/11/08 06:50:19;;;;;;;10.47;6.90;;;;;;;7.69;88.25;95866.80;1795676;80;20967;-67
2021/11/08 06:52:50;;;;;;;11.00;7.33;;;;;;;7.70;87.72;95866.77;1795263;80;21046;-68
2021/11/08 06:55:15;;;;;;;8.87;6.97;;;;;;;7.69;87.51;95854.98;1795080;80;21050;-68
2021/11/08 06:57:48;;;;;;;12.57;6.47;;;;;;;7.70;87.52;95856.27;1795038;80;21520;-68
2021/11/08 07:00:13;;;;;;;10.63;6.67;;;;;;;7.74;87.56;95861.95;1793153;80;21643;-68
2021/11/08 07:02:40;;;;;;;9.90;6.80;;;;;;;7.73;87.37;95868.07;1795440;80;20987;-68
2021/11/08 07:05:08;;;;;;;8.93;6.83;;;;;;;7.77;87.39;95859.31;1794946;80;21090;-68
2021/11/08 07:07:34;;;;;;;9.57;5.57;;;;;;;7.82;87.41;95851.87;1795242;80;21074;-69
2021/11/08 07:10:01;;;;;;;10.90;6.40;;;;;;;7.86;87.40;95855.80;1795420;80;21021;-69
2021/11/08 07:12:28;;;;;;;9.57;7.10;;;;;;;7.86;86.99;95845.70;1795131;80;21106;-68
2021/11/08 07:14:54;;;;;;;18.03;13.73;;;;;;;7.83;87.21;95853.16;1795396;80;21100;-68
2021/11/08 07:17:21;;;;;;;12.13;8.10;;;;;;;7.79;86.75;95854.06;1795114;80;21106;-68
2021/11/08 07:19:48;;;;;;;11.93;7.23;;;;;;;7.72;87.65;95850.58;1795226;80;21018;-68
2021/11/08 07:22:15;;;;;;;11.40;6.53;;;;;;;7.78;87.57;95850.98;1795171;80;21118;-68
2021/11/08 07:24:42;;;;;;;9.23;6.73;;;;;;;7.87;88.04;95839.59;1795389;80;21002;-68
2021/11/08 07:27:08;;;;;;;13.27;10.17;;;;;;;7.95;87.93;95844.36;1795034;80;21098;-68
2021/11/08 07:29:37;;;;;;;39.90;21.87;;;;;;;8.01;87.84;95837.34;1795391;80;21061;-68
2021/11/08 07:32:06;;;;;;;44.50;24.70;;;;;;;8.06;87.53;95833.34;1795040;80;21560;-68
2021/11/08 07:34:34;;;;;;;29.50;16.87;;;;;;;8.04;86.99;95831.19;1795334;80;21503;-68
2021/11/08 07:37:01;;;;;;;14.57;9.80;;;;;;;7.99;86.91;95829.89;1795167;80;21113;-68
2021/11/08 07:39:28;;;;;;;16.93;11.53;;;;;;;8.02;87.10;95827.24;1795377;80;20986;-68
2021/11/08 07:41:55;;;;;;;28.37;16.87;;;;;;;8.03;87.01;95823.72;1795182;80;21146;-68
2021/11/08 07:44:21;;;;;;;27.23;16.37;;;;;;;8.11;87.38;95814.48;1795384;80;21071;-67
2021/11/08 07:46:48;;;;;;;27.23;17.33;;;;;;;8.13;86.96;95805.28;1794820;80;21019;-68
2021/11/08 07:49:15;;;;;;;26.73;14.13;;;;;;;8.21;87.15;95819.25;1795388;80;21531;-67
2021/11/08 07:51:43;;;;;;;30.20;16.90;;;;;;;8.34;87.28;95823.98;1795192;80;21026;-68
2021/11/08 07:54:09;;;;;;;28.07;17.50;;;;;;;8.37;87.17;95823.55;1795313;80;21014;-68
2021/11/08 07:56:37;;;;;;;27.93;17.33;;;;;;;8.39;86.92;95820.51;1764188;80;21161;-68
2021/11/08 07:59:04;;;;;;;23.27;16.43;;;;;;;8.44;87.11;95822.66;1795388;80;21018;-68
2021/11/08 08:01:30;;;;;;;25.53;15.70;;;;;;;8.45;86.66;95832.28;1794945;80;21579;-67
2021/11/08 08:03:57;;;;;;;23.20;15.00;;;;;;;8.35;85.96;95827.94;1789349;80;21010;-68
2021/11/08 08:06:24;;;;;;;22.93;14.80;;;;;;;8.29;86.21;95810.00;1787163;80;21011;-68
2021/11/08 08:08:51;;;;;;;24.47;15.37;;;;;;;8.37;86.78;95816.11;1786621;80;21110;-67
2021/11/08 08:11:20;;;;;;;27.60;13.33;;;;;;;8.45;87.01;95834.05;1787094;80;20995;-68
2021/11/08 08:13:48;;;;;;;15.23;9.73;;;;;;;8.49;86.81;95844.95;1786899;80;21528;-68
2021/11/08 08:16:18;;;;;;;14.37;9.70;;;;;;;8.47;86.38;95846.75;1787014;80;21047;-68
2021/11/08 08:18:47;;;;;;;16.90;9.83;;;;;;;8.41;86.08;95842.83;1786970;80;21083;-68
2021/11/08 08:21:15;;;;;;;19.40;11.90;;;;;;;8.46;86.55;95830.52;1787110;80;20977;-67
2021/11/08 08:23:43;;;;;;;60.97;50.13;;;;;;;8.56;86.96;95840.55;1786924;80;21102;-67
2021/11/08 08:26:11;;;;;;;12.53;9.97;;;;;;;8.54;86.14;95831.37;1787000;80;21046;-67
2021/11/08 08:28:39;;;;;;;13.48;8.90;;;;;;;8.57;86.41;95831.34;1786869;80;21144;-68
2021/11/08 08:31:06;;;;;;;10.97;8.07;;;;;;;8.60;86.35;95839.65;1787169;80;21449;-67
2021/11/08 08:33:34;;;;;;;15.37;9.60;;;;;;;8.60;86.00;95843.14;1786800;80;21130;-67
2021/11/08 08:36:01;;;;;;;16.10;10.47;;;;;;;8.55;86.11;95850.20;1786889;80;21054;-67
2021/11/08 08:38:28;;;;;;;23.50;12.37;;;;;;;8.60;86.56;95856.75;1786770;80;21597;-67
2021/11/08 08:40:56;;;;;;;28.17;15.33;;;;;;;8.63;86.42;95866.80;1787093;80;20978;-67
2021/11/08 08:43:24;;;;;;;26.17;16.00;;;;;;;8.58;85.97;95867.27;1786559;80;21022;-67
2021/11/08 08:45:51;;;;;;;25.90;14.40;;;;;;;8.64;86.30;95875.55;1787086;80;21007;-67
2021/11/08 08:48:19;;;;;;;23.85;13.05;;;;;;;8.66;86.31;95871.16;1786819;80;21011;-67
2021/11/08 08:50:46;;;;;;;22.33;12.80;;;;;;;8.73;86.64;95872.00;1786620;80;21027;-67
2021/11/08 08:53:14;;;;;;;19.65;10.40;;;;;;;8.79;86.62;95866.68;1786847;80;21019;-67
2021/11/08 08:55:44;;;;;;;15.63;10.10;;;;;;;8.89;86.99;95863.09;1786746;80;21014;-67
2021/11/08 08:58:13;;;;;;;18.25;9.13;;;;;;;8.98;86.55;95858.22;1787006;80;21074;-67
2021/11/08 09:00:44;;;;;;;12.75;9.40;;;;;;;8.97;85.86;95858.67;1787206;80;20959;-67
2021/11/08 09:03:11;;;;;;;15.48;9.98;;;;;;;9.02;86.17;95859.92;1787026;80;20987;-67
2021/11/08 09:05:38;;;;;;;13.13;9.77;;;;;;;9.13;86.14;95865.98;1786797;80;21011;-68
2021/11/08 09:08:05;;;;;;;12.73;9.80;;;;;;;9.09;85.41;95859.85;1786735;80;21045;-67
2021/11/08 09:10:34;;;;;;;12.60;8.47;;;;;;;9.10;85.02;95864.25;1786337;80;21493;-68
2021/11/08 09:13:02;;;;;;;10.68;8.73;;;;;;;9.11;85.02;95879.59;1787145;80;21529;-67
2021/11/08 09:15:30;;;;;;;8.60;7.20;;;;;;;8.98;84.32;95877.51;1787036;80;21011;-67
2021/11/08 09:17:58;;;;;;;7.05;5.70;;;;;;;8.82;84.36;95879.39;1786720;80;21540;-67
2021/11/08 09:20:27;;;;;;;6.60;5.28;;;;;;;8.62;84.66;95885.23;1786932;80;21085;-67
2021/11/08 09:22:55;;;;;;;10.57;6.60;;;;;;;8.52;84.94;95888.80;1787351;80;20975;-67
2021/11/08 09:25:24;;;;;;;7.27;6.03;;;;;;;8.47;84.95;95878.72;1787296;80;21038;-67
2021/11/08 09:27:55;;;;;;;7.50;5.23;;;;;;;8.39;85.25;95884.92;1787318;80;21441;-67
2021/11/08 09:30:26;;;;;;;6.42;5.53;;;;;;;8.35;85.44;95888.86;1787237;80;20979;-67
2021/11/08 09:32:53;;;;;;;6.60;4.50;;;;;;;8.32;85.52;95895.45;1786660;80;21452;-67
2021/11/08 09:35:22;;;;;;;6.73;4.83;;;;;;;8.24;85.62;95906.88;1786939;80;21054;-67
2021/11/08 09:37:50;;;;;;;5.17;4.23;;;;;;;8.16;86.07;95915.20;1787271;80;21019;-67
2021/11/08 09:40:21;;;;;;;5.93;3.87;;;;;;;8.11;86.31;95920.05;1786819;80;21038;-67
2021/11/08 09:42:53;;;;;;;5.00;4.03;;;;;;;8.06;86.52;95921.83;1787451;80;21480;-67
2021/11/08 09:45:21;;;;;;;4.93;4.00;;;;;;;8.03;86.40;95920.95;1787226;80;21011;-67
2021/11/08 09:47:48;;;;;;;5.97;4.67;;;;;;;8.00;86.46;95918.79;1786680;80;21043;-68
2021/11/08 09:50:20;;;;;;;9.27;5.30;;;;;;;8.00;86.36;95921.41;1786885;80;21098;-67
2021/11/08 09:52:50;;;;;;;7.07;4.50;;;;;;;7.98;86.29;95925.34;1787071;80;20983;-68
2021/11/08 09:55:21;;;;;;;4.30;3.23;;;;;;;7.96;86.05;95922.30;1787288;80;20979;-67
2021/11/08 09:57:49;;;;;;;7.30;3.47;;;;;;;7.91;85.70;95914.86;1787292;80;21006;-67
2021/11/08 10:00:22;;;;;;;5.83;3.57;;;;;;;7.90;85.81;95919.25;1787088;80;21071;-68
2021/11/08 10:03:01;;;;;;;4.00;2.67;;;;;;;7.90;85.71;95919.70;1787163;80;20999;-68
2021/11/08 10:05:32;;;;;;;5.23;3.70;;;;;;;7.88;85.34;95922.31;1786925;80;21084;-68
2021/11/08 10:07:59;;;;;;;5.73;3.00;;;;;;;7.86;85.39;95922.79;1787134;80;21449;-68
2021/11/08 10:10:29;;;;;;;5.70;3.17;;;;;;;7.79;85.23;95921.92;1787161;80;21110;-68
2021/11/08 10:13:09;;;;;;;4.03;2.77;;;;;;;7.79;85.24;95920.60;1787199;80;20999;-67
2021/11/08 10:15:37;;;;;;;6.70;3.97;;;;;;;7.76;85.22;95924.97;1782062;80;21098;-68
2021/11/08 10:18:05;;;;;;;5.27;2.93;;;;;;;7.77;85.15;95927.61;1787107;80;21003;-68
2021/11/08 10:20:40;;;;;;;5.50;3.23;;;;;;;7.74;85.23;95918.88;1786919;80;21063;-68
2021/11/08 10:23:09;;;;;;;5.37;3.67;;;;;;;7.72;85.37;95920.63;1787238;80;21018;-67
2021/11/08 10:25:39;;;;;;;4.07;3.37;;;;;;;7.71;85.52;95906.63;1787028;80;21119;-67
2021/11/08 10:28:13;;;;;;;5.80;3.50;;;;;;;7.74;85.69;95897.41;1787252;80;21046;-67
2021/11/08 10:30:40;;;;;;;5.17;3.87;;;;;;;7.79;85.78;95881.20;1787069;80;21011;-68
2021/11/08 10:33:14;;;;;;;6.07;4.13;;;;;;;7.83;85.75;95885.13;1786728;80;21063;-68
2021/11/08 10:35:49;;;;;;;5.47;3.90;;;;;;;7.86;85.85;95880.75;1786206;80;21067;-67
2021/11/08 10:38:24;;;;;;;5.80;4.37;;;;;;;7.84;85.95;95873.72;1786696;80;21023;-68
2021/11/08 10:41:01;;;;;;;5.83;4.10;;;;;;;7.90;86.03;95875.03;1787172;80;21075;-68
2021/11/08 10:43:54;;;;;;;4.23;3.50;;;;;;;7.92;85.91;95887.73;1786742;80;21075;-67
2021/11/08 10:46:25;;;;;;;4.57;3.50;;;;;;;7.92;86.04;95886.42;1786402;80;21054;-68
2021/11/08 10:48:57;;;;;;;5.03;3.70;;;;;;;7.99;86.17;95892.95;1787039;80;21001;-68
2021/11/08 10:51:27;;;;;;;4.97;3.90;;;;;;;8.07;86.19;95882.41;1787398;80;21449;-68
2021/11/08 10:54:02;;;;;;;4.53;3.87;;;;;;;8.11;85.91;95888.06;1787155;80;21052;-68
2021/11/08 10:56:42;;;;;;;5.47;4.27;;;;;;;8.05;85.41;95889.87;1785525;80;21002;-68
2021/11/08 10:59:17;;;;;;;9.53;5.03;;;;;;;7.99;85.26;95896.03;1786825;80;21046;-68
2021/11/08 11:01:54;;;;;;;6.20;4.40;;;;;;;7.93;85.57;95898.22;1755709;82;21006;-68
2021/11/08 11:04:40;;;;;;;12.07;7.03;;;;;;;7.91;85.67;95888.18;1786761;80;21045;-68
2021/11/08 11:07:06;;;;;;;7.37;5.27;;;;;;;7.89;85.97;95891.24;1787096;80;20991;-68
2021/11/08 11:09:38;;;;;;;10.97;5.43;;;;;;;7.92;86.17;95899.55;1786856;80;21018;-67
2021/11/08 11:12:16;;;;;;;9.17;6.50;;;;;;;7.98;86.11;95902.14;1787313;80;21018;-68
2021/11/08 11:14:51;;;;;;;7.57;4.60;;;;;;;8.00;85.96;95904.34;1786912;80;21055;-68
2021/11/08 11:17:27;;;;;;;4.43;4.03;;;;;;;8.04;85.81;95899.52;1786215;80;21015;-68
2021/11/08 11:20:12;;;;;;;5.77;4.23;;;;;;;8.02;85.55;95898.20;1786948;80;21516;-68
2021/11/08 11:22:45;;;;;;;5.77;3.67;;;;;;;7.99;85.54;95897.34;1786907;80;21067;-68
2021/11/08 11:25:13;;;;;;;5.23;3.60;;;;;;;7.93;85.63;95910.48;1786574;80;21050;-68
2021/11/08 11:27:48;;;;;;;3.67;3.27;;;;;;;7.89;85.43;95902.20;1787226;80;21489;-68
2021/11/08 11:30:25;;;;;;;4.90;3.90;;;;;;;7.82;85.12;95900.47;1787175;80;21077;-68
2021/11/08 11:33:12;;;;;;;5.73;3.83;;;;;;;7.80;85.05;95895.20;1786802;80;21027;-68
2021/11/08 11:35:48;;;;;;;7.47;4.00;;;;;;;7.73;85.02;95898.27;1787115;80;20991;-68
2021/11/08 11:38:26;;;;;;;6.57;4.70;;;;;;;7.71;85.10;95896.12;1786701;80;21110;-68
2021/11/08 11:41:01;;;;;;;6.90;4.93;;;;;;;7.64;85.47;95915.83;1787067;80;21058;-68
2021/11/08 11:43:35;;;;;;;5.43;4.10;;;;;;;7.64;85.52;95907.52;1786980;80;21504;-68
2021/11/08 11:46:06;;;;;;;6.37;5.13;;;;;;;7.58;85.57;95913.66;1786751;80;21525;-68
2021/11/08 11:48:35;;;;;;;6.43;5.03;;;;;;;7.54;85.65;95904.02;1787049;80;21074;-68
2021/11/08 11:51:06;;;;;;;7.63;5.77;;;;;;;7.56;85.65;95907.97;1787056;80;20999;-68
2021/11/08 11:53:34;;;;;;;6.00;5.10;;;;;;;7.57;85.76;95918.45;1787201;80;21496;-68
2021/11/08 11:56:02;;;;;;;6.70;4.87;;;;;;;7.55;85.55;95911.02;1787134;80;21067;-68
2021/11/08 11:58:30;;;;;;;9.07;5.20;;;;;;;7.60;85.64;95904.44;1787358;80;21043;-68
2021/11/08 12:00:59;;;;;;;8.47;5.30;;;;;;;7.61;85.50;95893.08;1787106;80;21477;-68
2021/11/08 12:03:29;;;;;;;12.40;5.33;;;;;;;7.62;85.45;95880.38;1786832;80;21127;-68
2021/11/08 12:05:57;;;;;;;7.33;6.07;;;;;;;7.66;85.33;95892.63;1728606;81;20991;-67
2021/11/08 12:08:28;;;;;;;9.33;5.80;;;;;;;7.71;85.17;95900.47;1755176;82;21560;-67
2021/11/08 12:10:55;;;;;;;9.60;7.50;;;;;;;7.75;85.33;95897.84;1755584;82;21504;-68
2021/11/08 12:13:30;;;;;;;9.57;7.27;;;;;;;7.77;85.26;95895.22;1755167;82;21027;-67
2021/11/08 12:15:54;;;;;;;10.83;7.13;;;;;;;7.74;85.41;95899.17;1754299;82;21003;-67
2021/11/08 12:18:22;;;;;;;8.83;6.47;;;;;;;7.78;85.40;95896.95;1721042;82;21089;-67
2021/11/08 12:20:53;;;;;;;11.13;7.63;;;;;;;7.80;85.40;95898.70;1755272;81;21026;-68
2021/11/08 12:23:24;;;;;;;11.40;8.23;;;;;;;7.80;85.56;95898.70;1755666;82;21018;-68
2021/11/08 12:25:52;;;;;;;11.93;8.93;;;;;;;7.83;85.27;95891.24;1755906;82;21114;-68
2021/11/08 12:28:30;;;;;;;13.33;9.17;;;;;;;7.84;85.01;95890.80;1756164;82;21489;-68
2021/11/08 12:31:01;;;;;;;12.50;8.73;;;;;;;7.82;84.62;95888.20;1755682;81;21026;-68
2021/11/08 12:33:38;;;;;;;10.40;8.47;;;;;;;7.78;84.60;95889.94;1755824;82;21034;-68
2021/11/08 12:36:16;;;;;;;11.87;9.13;;;;;;;7.68;84.37;95886.91;1755753;82;21153;-68
2021/11/08 12:38:56;;;;;;;12.33;8.67;;;;;;;7.66;84.61;95882.54;1755957;81;20987;-68
2021/11/08 12:41:49;;;;;;;10.33;7.73;;;;;;;7.66;85.04;95887.79;1755665;81;21018;-68
2021/11/08 12:44:20;;;;;;;9.77;7.90;;;;;;;7.67;85.18;95885.17;1755767;82;21050;-68
2021/11/08 12:46:58;;;;;;;12.07;8.13;;;;;;;7.68;85.19;95892.61;1755801;82;21035;-68
2021/11/08 12:49:33;;;;;;;15.97;10.47;;;;;;;7.65;84.76;95891.31;1755611;82;21053;-68
2021/11/08 12:52:09;;;;;;;11.77;7.00;;;;;;;7.66;84.73;95886.06;1755585;81;21003;-68
2021/11/08 12:54:57;;;;;;;8.10;6.27;;;;;;;7.57;84.12;95883.45;1734842;81;21469;-68
2021/11/08 12:57:27;;;;;;;9.50;6.87;;;;;;;7.48;84.05;95879.52;1755500;82;21050;-67
2021/11/08 12:59:59;;;;;;;8.70;6.30;;;;;;;7.49;84.23;95882.59;1755782;82;21031;-68
2021/11/08 13:02:32;;;;;;;8.68;6.22;;;;;;;7.39;84.08;95884.36;1755738;82;21027;-68
2021/11/08 13:05:05;;;;;;;;;;;;;;;7.36;84.27;95882.62;1761321;81;21492;-68
2021/11/08 13:07:37;;;;;;;9.80;6.77;;;;;;;7.40;84.36;95882.61;1762448;81;20110;-68
2021/11/08 13:10:09;;;;;;;10.97;7.23;;;;;;;7.37;83.59;95886.11;1762283;81;21075;-68
2021/11/08 13:12:42;;;;;;;17.20;9.63;;;;;;;7.34;83.59;95887.44;1758676;81;21492;-67
2021/11/08 13:15:25;;;;;;;17.55;10.75;;;;;;;7.32;83.56;95891.80;1762721;81;21086;-68
2021/11/08 13:18:02;;;;;;;22.62;11.38;;;;;;;7.35;83.74;95897.05;1762510;81;20991;-67
2021/11/08 13:20:34;;;;;;;23.73;12.90;;;;;;;7.38;83.55;95898.34;1762146;81;21022;-68
2021/11/08 13:23:05;;;;;;;11.37;8.20;;;;;;;7.41;83.61;95901.41;1762611;81;21512;-69
2021/11/08 13:25:37;;;;;;;16.60;10.50;;;;;;;7.43;83.43;95907.53;1762617;81;21086;-67
2021/11/08 13:28:08;;;;;;;11.83;9.37;;;;;;;7.42;83.26;95909.29;1762230;81;21055;-67